createdAt,value
2019-02-03T00:00:50.502Z,1004.12
2019-02-03T00:01:50.506Z,1004.19
2019-02-03T00:02:50.509Z,1004.20
2019-02-03T00:03:50.537Z,1004.17
2019-02-03T00:04:50.516Z,1004.21
2019-02-03T00:05:50.508Z,1004.23
2019-02-03T00:07:02.653Z,1004.25
2019-02-03T00:07:50.512Z,1004.28
2019-02-03T00:08:50.516Z,1004.28
2019-02-03T00:10:50.520Z,1004.31
2019-02-03T00:11:50.522Z,1004.30
2019-02-03T00:12:50.518Z,1004.30
2019-02-03T00:13:50.517Z,1004.29
2019-02-03T00:14:50.531Z,1004.27
2019-02-03T00:15:50.520Z,1004.23
2019-02-03T00:16:50.524Z,1004.20
2019-02-03T00:17:50.532Z,1004.24
2019-02-03T00:18:50.538Z,1004.23
2019-02-03T00:19:50.532Z,1004.21
2019-02-03T00:20:50.546Z,1004.22
2019-02-03T00:21:50.530Z,1004.20
2019-02-03T00:22:50.542Z,1004.19
2019-02-03T00:24:11.556Z,1004.22
2019-02-03T00:24:50.538Z,1004.19
2019-02-03T00:25:50.538Z,1004.17
2019-02-03T00:26:50.543Z,1004.16
2019-02-03T00:27:50.551Z,1004.20
2019-02-03T00:28:50.543Z,1004.20
2019-02-03T00:29:50.538Z,1004.20
2019-02-03T00:30:50.543Z,1004.21
2019-02-03T00:31:50.553Z,1004.15
2019-02-03T00:32:51.723Z,1004.16
2019-02-03T00:33:50.571Z,1004.15
2019-02-03T00:34:50.554Z,1004.15
2019-02-03T00:35:50.567Z,1004.14
2019-02-03T00:36:50.674Z,1004.16
2019-02-03T00:37:50.644Z,1004.21
2019-02-03T00:38:50.683Z,1004.20
2019-02-03T00:39:50.708Z,1004.23
2019-02-03T00:40:50.675Z,1004.27
2019-02-03T00:41:50.682Z,1004.27
2019-02-03T00:42:50.572Z,1004.31
2019-02-03T00:43:50.577Z,1004.26
2019-02-03T00:44:50.566Z,1004.32
2019-02-03T00:45:50.563Z,1004.30
2019-02-03T00:46:50.564Z,1004.33
2019-02-03T00:47:50.568Z,1004.32
2019-02-03T00:48:50.568Z,1004.35
2019-02-03T00:49:50.575Z,1004.36
2019-02-03T00:50:50.567Z,1004.42
2019-02-03T00:51:50.576Z,1004.40
2019-02-03T00:52:50.577Z,1004.42
2019-02-03T00:53:50.573Z,1004.47
2019-02-03T00:54:50.576Z,1004.51
2019-02-03T00:55:50.575Z,1004.53
2019-02-03T00:56:50.576Z,1004.56
2019-02-03T00:57:50.576Z,1004.60
2019-02-03T00:58:50.579Z,1004.62
2019-02-03T00:59:50.579Z,1004.61
2019-02-03T01:00:50.579Z,1004.70
2019-02-03T01:01:50.581Z,1004.73
2019-02-03T01:02:50.588Z,1004.79
2019-02-03T01:03:50.586Z,1004.80
2019-02-03T01:05:50.597Z,1004.84
2019-02-03T01:06:50.588Z,1004.89
2019-02-03T01:07:50.591Z,1004.86
2019-02-03T01:08:50.592Z,1004.84
2019-02-03T01:09:50.592Z,1004.87
2019-02-03T01:10:50.600Z,1004.87
2019-02-03T01:11:50.591Z,1004.88
2019-02-03T01:12:50.593Z,1004.87
2019-02-03T01:13:50.600Z,1004.87
2019-02-03T01:14:50.610Z,1004.93
2019-02-03T01:15:50.606Z,1004.93
2019-02-03T01:16:50.604Z,1004.92
2019-02-03T01:17:50.605Z,1004.97
2019-02-03T01:18:50.618Z,1004.99
2019-02-03T01:19:50.611Z,1005.01
2019-02-03T01:20:50.611Z,1005.04
2019-02-03T01:21:50.608Z,1005.00
2019-02-03T01:22:50.646Z,1005.05
2019-02-03T01:23:50.629Z,1005.07
2019-02-03T01:24:50.613Z,1005.10
2019-02-03T01:25:50.637Z,1005.14
2019-02-03T01:26:50.618Z,1005.12
2019-02-03T01:27:50.622Z,1005.13
2019-02-03T01:28:50.754Z,1005.20
2019-02-03T01:30:50.621Z,1005.21
2019-02-03T01:31:50.626Z,1005.23
2019-02-03T01:32:50.670Z,1005.24
2019-02-03T01:33:50.621Z,1005.27
2019-02-03T01:34:50.624Z,1005.24
2019-02-03T01:35:50.627Z,1005.20
2019-02-03T01:36:50.635Z,1005.19
2019-02-03T01:37:50.641Z,1005.22
2019-02-03T01:38:50.635Z,1005.30
2019-02-03T01:39:50.643Z,1005.32
2019-02-03T01:40:50.644Z,1005.30
2019-02-03T01:41:50.656Z,1005.30
2019-02-03T01:42:50.630Z,1005.29
2019-02-03T01:43:50.637Z,1005.31
2019-02-03T01:44:50.647Z,1005.29
2019-02-03T01:45:50.639Z,1005.27
2019-02-03T01:46:50.686Z,1005.27
2019-02-03T01:47:50.643Z,1005.32
2019-02-03T01:48:50.643Z,1005.30
2019-02-03T01:49:50.647Z,1005.29
2019-02-03T01:50:50.640Z,1005.34
2019-02-03T01:51:50.649Z,1005.36
2019-02-03T01:52:50.672Z,1005.40
2019-02-03T01:53:50.650Z,1005.36
2019-02-03T01:54:50.653Z,1005.37
2019-02-03T01:55:50.663Z,1005.36
2019-02-03T01:56:50.655Z,1005.36
2019-02-03T01:57:50.656Z,1005.40
2019-02-03T01:58:50.659Z,1005.40
2019-02-03T01:59:50.662Z,1005.43
2019-02-03T02:00:50.663Z,1005.44
2019-02-03T02:01:50.665Z,1005.39
2019-02-03T02:02:50.667Z,1005.41
2019-02-03T02:03:50.672Z,1005.46
2019-02-03T02:04:50.659Z,1005.41
2019-02-03T02:05:50.666Z,1005.40
2019-02-03T02:06:53.004Z,1005.38
2019-02-03T02:07:52.057Z,1005.34
2019-02-03T02:08:50.674Z,1005.38
2019-02-03T02:09:50.673Z,1005.39
2019-02-03T02:10:50.673Z,1005.41
2019-02-03T02:11:50.677Z,1005.39
2019-02-03T02:12:50.674Z,1005.40
2019-02-03T02:13:50.679Z,1005.39
2019-02-03T02:14:50.682Z,1005.42
2019-02-03T02:15:50.682Z,1005.43
2019-02-03T02:16:50.686Z,1005.49
2019-02-03T02:17:50.691Z,1005.47
2019-02-03T02:19:50.685Z,1005.50
2019-02-03T02:20:50.685Z,1005.53
2019-02-03T02:21:50.690Z,1005.54
2019-02-03T02:22:50.691Z,1005.52
2019-02-03T02:23:50.697Z,1005.55
2019-02-03T02:24:50.695Z,1005.54
2019-02-03T02:25:50.696Z,1005.56
2019-02-03T02:26:50.688Z,1005.58
2019-02-03T02:27:50.694Z,1005.65
2019-02-03T02:28:50.688Z,1005.66
2019-02-03T02:29:50.690Z,1005.64
2019-02-03T02:30:50.698Z,1005.60
2019-02-03T02:31:50.699Z,1005.58
2019-02-03T02:32:50.708Z,1005.59
2019-02-03T02:33:50.709Z,1005.65
2019-02-03T02:34:50.708Z,1005.63
2019-02-03T02:35:50.707Z,1005.68
2019-02-03T02:36:50.701Z,1005.72
2019-02-03T02:37:56.904Z,1005.74
2019-02-03T02:38:50.707Z,1005.75
2019-02-03T02:39:50.708Z,1005.77
2019-02-03T02:40:50.709Z,1005.75
2019-02-03T02:41:50.777Z,1005.79
2019-02-03T02:42:50.703Z,1005.74
2019-02-03T02:43:50.704Z,1005.78
2019-02-03T02:44:50.706Z,1005.80
2019-02-03T02:45:50.709Z,1005.80
2019-02-03T02:46:50.711Z,1005.75
2019-02-03T02:47:50.714Z,1005.83
2019-02-03T02:48:50.717Z,1005.79
2019-02-03T02:49:50.714Z,1005.80
2019-02-03T02:50:50.713Z,1005.81
2019-02-03T02:51:50.714Z,1005.80
2019-02-03T02:52:50.713Z,1005.73
2019-02-03T02:53:50.718Z,1005.77
2019-02-03T02:54:50.722Z,1005.74
2019-02-03T02:55:50.717Z,1005.74
2019-02-03T02:56:50.716Z,1005.74
2019-02-03T02:57:50.735Z,1005.73
2019-02-03T02:58:50.717Z,1005.71
2019-02-03T02:59:50.721Z,1005.72
2019-02-03T03:00:50.718Z,1005.72
2019-02-03T03:01:50.713Z,1005.75
2019-02-03T03:02:50.722Z,1005.75
2019-02-03T03:03:50.725Z,1005.78
2019-02-03T03:04:50.733Z,1005.77
2019-02-03T03:05:50.727Z,1005.82
2019-02-03T03:06:50.725Z,1005.80
2019-02-03T03:07:50.723Z,1005.77
2019-02-03T03:09:50.722Z,1005.80
2019-02-03T03:10:50.727Z,1005.81
2019-02-03T03:11:50.727Z,1005.85
2019-02-03T03:12:50.731Z,1005.82
2019-02-03T03:13:50.739Z,1005.84
2019-02-03T03:14:50.727Z,1005.89
2019-02-03T03:15:50.719Z,1005.86
2019-02-03T03:16:50.725Z,1005.85
2019-02-03T03:17:50.732Z,1005.86
2019-02-03T03:18:50.725Z,1005.92
2019-02-03T03:19:50.729Z,1005.86
2019-02-03T03:20:50.733Z,1005.94
2019-02-03T03:21:50.736Z,1005.97
2019-02-03T03:22:50.729Z,1005.95
2019-02-03T03:23:50.732Z,1005.92
2019-02-03T03:24:50.740Z,1005.93
2019-02-03T03:25:50.774Z,1005.93
2019-02-03T03:26:50.734Z,1005.96
2019-02-03T03:27:50.786Z,1005.92
2019-02-03T03:28:50.740Z,1005.90
2019-02-03T03:29:50.733Z,1005.92
2019-02-03T03:30:50.731Z,1005.89
2019-02-03T03:31:50.736Z,1005.89
2019-02-03T03:32:50.758Z,1005.88
2019-02-03T03:33:50.750Z,1005.87
2019-02-03T03:34:50.740Z,1005.90
2019-02-03T03:35:50.742Z,1005.89
2019-02-03T03:36:50.738Z,1005.89
2019-02-03T03:37:50.739Z,1005.83
2019-02-03T03:38:50.740Z,1005.89
2019-02-03T03:39:50.753Z,1005.91
2019-02-03T03:40:50.741Z,1005.92
2019-02-03T03:41:50.738Z,1005.92
2019-02-03T03:42:50.746Z,1005.93
2019-02-03T03:43:50.734Z,1005.91
2019-02-03T03:44:50.741Z,1005.96
2019-02-03T03:45:50.875Z,1005.97
2019-02-03T03:46:50.740Z,1005.96
2019-02-03T03:47:50.742Z,1005.96
2019-02-03T03:48:50.749Z,1006.03
2019-02-03T03:49:50.743Z,1006.03
2019-02-03T03:50:50.752Z,1006.07
2019-02-03T03:51:50.743Z,1006.02
2019-02-03T03:52:50.753Z,1006.08
2019-02-03T03:53:50.753Z,1006.11
2019-02-03T03:54:50.751Z,1006.14
2019-02-03T03:55:50.744Z,1006.17
2019-02-03T03:56:50.761Z,1006.16
2019-02-03T03:57:50.784Z,1006.19
2019-02-03T03:58:50.746Z,1006.21
2019-02-03T03:59:50.747Z,1006.23
2019-02-03T04:00:50.753Z,1006.24
2019-02-03T04:01:50.751Z,1006.25
2019-02-03T04:02:50.754Z,1006.26
2019-02-03T04:03:50.762Z,1006.27
2019-02-03T04:04:50.754Z,1006.26
2019-02-03T04:05:50.750Z,1006.28
2019-02-03T04:06:50.756Z,1006.23
2019-02-03T04:07:50.761Z,1006.20
2019-02-03T04:08:50.751Z,1006.22
2019-02-03T04:09:50.957Z,1006.16
2019-02-03T04:10:50.750Z,1006.14
2019-02-03T04:11:50.755Z,1006.16
2019-02-03T04:12:50.819Z,1006.19
2019-02-03T04:13:50.756Z,1006.18
2019-02-03T04:14:50.750Z,1006.21
2019-02-03T04:15:50.756Z,1006.21
2019-02-03T04:16:50.753Z,1006.23
2019-02-03T04:17:50.758Z,1006.27
2019-02-03T04:18:51.481Z,1006.25
2019-02-03T04:19:50.753Z,1006.26
2019-02-03T04:20:50.753Z,1006.28
2019-02-03T04:21:50.761Z,1006.31
2019-02-03T04:22:50.761Z,1006.39
2019-02-03T04:23:50.762Z,1006.45
2019-02-03T04:24:50.775Z,1006.50
2019-02-03T04:25:50.760Z,1006.57
2019-02-03T04:27:50.771Z,1006.58
2019-02-03T04:28:50.762Z,1006.65
2019-02-03T04:29:50.764Z,1006.67
2019-02-03T04:30:50.759Z,1006.63
2019-02-03T04:31:50.758Z,1006.70
2019-02-03T04:32:50.758Z,1006.70
2019-02-03T04:33:50.762Z,1006.69
2019-02-03T04:34:50.758Z,1006.75
2019-02-03T04:35:50.752Z,1006.79
2019-02-03T04:36:50.759Z,1006.80
2019-02-03T04:37:50.763Z,1006.82
2019-02-03T04:38:58.247Z,1006.86
2019-02-03T04:39:50.760Z,1006.89
2019-02-03T04:40:50.762Z,1006.88
2019-02-03T04:41:50.760Z,1006.95
2019-02-03T04:42:50.784Z,1006.99
2019-02-03T04:43:50.775Z,1007.05
2019-02-03T04:44:50.764Z,1007.05
2019-02-03T04:45:50.773Z,1007.10
2019-02-03T04:46:50.971Z,1007.12
2019-02-03T04:47:50.793Z,1007.18
2019-02-03T04:48:50.766Z,1007.22
2019-02-03T04:49:50.762Z,1007.22
2019-02-03T04:50:50.931Z,1007.22
2019-02-03T04:51:50.767Z,1007.28
2019-02-03T04:52:50.808Z,1007.23
2019-02-03T04:53:50.770Z,1007.27
2019-02-03T04:54:50.777Z,1007.32
2019-02-03T04:55:50.770Z,1007.33
2019-02-03T04:56:50.769Z,1007.38
2019-02-03T04:57:50.769Z,1007.41
2019-02-03T04:58:50.772Z,1007.46
2019-02-03T04:59:50.770Z,1007.49
2019-02-03T05:00:50.778Z,1007.49
2019-02-03T05:01:50.775Z,1007.51
2019-02-03T05:02:50.915Z,1007.57
2019-02-03T05:03:50.763Z,1007.61
2019-02-03T05:04:50.787Z,1007.62
2019-02-03T05:05:50.770Z,1007.66
2019-02-03T05:06:50.770Z,1007.67
2019-02-03T05:07:50.770Z,1007.68
2019-02-03T05:08:50.776Z,1007.73
2019-02-03T05:09:50.770Z,1007.73
2019-02-03T05:10:50.776Z,1007.79
2019-02-03T05:11:50.767Z,1007.79
2019-02-03T05:12:50.772Z,1007.83
2019-02-03T05:13:50.776Z,1007.87
2019-02-03T05:14:50.790Z,1007.90
2019-02-03T05:15:50.783Z,1007.96
2019-02-03T05:16:50.777Z,1008.02
2019-02-03T05:17:50.786Z,1008.05
2019-02-03T05:18:50.782Z,1008.14
2019-02-03T05:19:50.787Z,1008.19
2019-02-03T05:20:50.775Z,1008.25
2019-02-03T05:21:50.910Z,1008.28
2019-02-03T05:22:50.779Z,1008.27
2019-02-03T05:23:50.781Z,1008.28
2019-02-03T05:24:50.784Z,1008.30
2019-02-03T05:25:50.783Z,1008.32
2019-02-03T05:26:50.789Z,1008.31
2019-02-03T05:27:50.783Z,1008.33
2019-02-03T05:28:50.783Z,1008.28
2019-02-03T05:29:50.809Z,1008.29
2019-02-03T05:30:50.794Z,1008.29
2019-02-03T05:31:50.787Z,1008.28
2019-02-03T05:32:50.787Z,1008.30
2019-02-03T05:33:50.791Z,1008.31
2019-02-03T05:34:50.792Z,1008.37
2019-02-03T05:35:50.787Z,1008.33
2019-02-03T05:36:50.787Z,1008.33
2019-02-03T05:37:50.828Z,1008.36
2019-02-03T05:38:50.791Z,1008.40
2019-02-03T05:39:50.793Z,1008.43
2019-02-03T05:40:50.795Z,1008.47
2019-02-03T05:41:50.800Z,1008.48
2019-02-03T05:42:50.796Z,1008.53
2019-02-03T05:43:50.796Z,1008.50
2019-02-03T05:44:50.796Z,1008.53
2019-02-03T05:45:50.797Z,1008.50
2019-02-03T05:46:50.797Z,1008.52
2019-02-03T05:47:50.797Z,1008.51
2019-02-03T05:48:50.804Z,1008.51
2019-02-03T05:49:50.801Z,1008.53
2019-02-03T05:50:50.803Z,1008.54
2019-02-03T05:51:50.804Z,1008.55
2019-02-03T05:52:50.810Z,1008.55
2019-02-03T05:53:50.808Z,1008.59
2019-02-03T05:54:50.804Z,1008.65
2019-02-03T05:55:50.801Z,1008.65
2019-02-03T05:56:50.804Z,1008.74
2019-02-03T05:57:50.815Z,1008.74
2019-02-03T05:58:50.816Z,1008.70
2019-02-03T05:59:50.810Z,1008.77
2019-02-03T06:00:50.810Z,1008.76
2019-02-03T06:01:50.810Z,1008.68
2019-02-03T06:02:50.818Z,1008.65
2019-02-03T06:03:50.826Z,1008.65
2019-02-03T06:04:50.810Z,1008.65
2019-02-03T06:05:50.822Z,1008.59
2019-02-03T06:06:50.823Z,1008.58
2019-02-03T06:07:50.818Z,1008.60
2019-02-03T06:08:50.856Z,1008.64
2019-02-03T06:09:50.822Z,1008.68
2019-02-03T06:10:50.817Z,1008.75
2019-02-03T06:11:50.810Z,1008.79
2019-02-03T06:12:50.821Z,1008.82
2019-02-03T06:13:50.821Z,1008.84
2019-02-03T06:14:50.829Z,1008.89
2019-02-03T06:15:50.839Z,1008.86
2019-02-03T06:16:50.825Z,1008.89
2019-02-03T06:17:50.823Z,1008.89
2019-02-03T06:18:50.830Z,1008.84
2019-02-03T06:19:50.828Z,1008.81
2019-02-03T06:20:50.828Z,1008.85
2019-02-03T06:21:50.834Z,1008.84
2019-02-03T06:22:50.831Z,1008.83
2019-02-03T06:23:50.844Z,1008.78
2019-02-03T06:24:51.875Z,1008.76
2019-02-03T06:25:50.835Z,1008.80
2019-02-03T06:26:50.827Z,1008.82
2019-02-03T06:27:50.833Z,1008.81
2019-02-03T06:28:50.827Z,1008.86
2019-02-03T06:29:50.835Z,1008.88
2019-02-03T06:30:50.843Z,1008.91
2019-02-03T06:31:50.843Z,1008.95
2019-02-03T06:32:50.842Z,1009.00
2019-02-03T06:33:50.836Z,1008.96
2019-02-03T06:34:50.840Z,1008.97
2019-02-03T06:35:50.839Z,1008.99
2019-02-03T06:36:51.948Z,1008.99
2019-02-03T06:37:50.843Z,1009.01
2019-02-03T06:38:50.843Z,1009.04
2019-02-03T06:39:50.843Z,1009.05
2019-02-03T06:40:50.846Z,1009.03
2019-02-03T06:41:50.989Z,1009.08
2019-02-03T06:42:50.843Z,1009.04
2019-02-03T06:43:50.848Z,1009.07
2019-02-03T06:44:50.856Z,1009.08
2019-02-03T06:45:50.844Z,1009.09
2019-02-03T06:46:50.851Z,1009.13
2019-02-03T06:47:50.864Z,1009.14
2019-02-03T06:48:50.856Z,1009.17
2019-02-03T06:49:50.850Z,1009.14
2019-02-03T06:50:50.847Z,1009.16
2019-02-03T06:51:50.859Z,1009.17
2019-02-03T06:52:50.862Z,1009.16
2019-02-03T06:53:50.852Z,1009.19
2019-02-03T06:54:50.853Z,1009.17
2019-02-03T06:55:50.857Z,1009.23
2019-02-03T06:56:50.857Z,1009.30
2019-02-03T06:57:50.855Z,1009.26
2019-02-03T06:58:50.858Z,1009.28
2019-02-03T06:59:51.415Z,1009.32
2019-02-03T07:00:50.867Z,1009.32
2019-02-03T07:01:50.868Z,1009.40
2019-02-03T07:02:50.859Z,1009.41
2019-02-03T07:03:50.868Z,1009.45
2019-02-03T07:04:50.862Z,1009.44
2019-02-03T07:05:50.862Z,1009.44
2019-02-03T07:06:50.860Z,1009.47
2019-02-03T07:07:50.863Z,1009.47
2019-02-03T07:08:50.871Z,1009.48
2019-02-03T07:10:00.061Z,1009.46
2019-02-03T07:10:50.871Z,1009.46
2019-02-03T07:11:50.871Z,1009.49
2019-02-03T07:12:50.876Z,1009.44
2019-02-03T07:13:50.871Z,1009.49
2019-02-03T07:14:50.873Z,1009.52
2019-02-03T07:15:50.871Z,1009.52
2019-02-03T07:16:50.871Z,1009.59
2019-02-03T07:17:50.872Z,1009.60
2019-02-03T07:18:50.874Z,1009.60
2019-02-03T07:19:50.878Z,1009.62
2019-02-03T07:20:50.883Z,1009.66
2019-02-03T07:21:50.875Z,1009.60
2019-02-03T07:22:50.898Z,1009.63
2019-02-03T07:23:50.883Z,1009.60
2019-02-03T07:24:50.879Z,1009.64
2019-02-03T07:25:50.884Z,1009.63
2019-02-03T07:26:50.882Z,1009.62
2019-02-03T07:27:50.881Z,1009.67
2019-02-03T07:28:50.882Z,1009.63
2019-02-03T07:29:50.886Z,1009.65
2019-02-03T07:30:50.884Z,1009.67
2019-02-03T07:31:50.886Z,1009.72
2019-02-03T07:32:50.887Z,1009.70
2019-02-03T07:33:50.887Z,1009.76
2019-02-03T07:34:50.883Z,1009.82
2019-02-03T07:35:50.888Z,1009.84
2019-02-03T07:36:50.892Z,1009.85
2019-02-03T07:37:50.910Z,1009.86
2019-02-03T07:38:50.894Z,1009.85
2019-02-03T07:39:50.891Z,1009.86
2019-02-03T07:40:50.894Z,1009.88
2019-02-03T07:41:50.892Z,1009.89
2019-02-03T07:42:50.904Z,1009.91
2019-02-03T07:43:50.920Z,1009.92
2019-02-03T07:44:50.911Z,1009.95
2019-02-03T07:45:50.897Z,1009.93
2019-02-03T07:46:50.908Z,1009.94
2019-02-03T07:47:50.905Z,1009.97
2019-02-03T07:48:50.899Z,1009.92
2019-02-03T07:49:50.911Z,1009.92
2019-02-03T07:50:50.902Z,1009.95
2019-02-03T07:51:50.902Z,1009.96
2019-02-03T07:52:50.900Z,1009.99
2019-02-03T07:53:50.906Z,1010.01
2019-02-03T07:54:50.896Z,1010.04
2019-02-03T07:55:50.906Z,1010.04
2019-02-03T07:56:50.907Z,1010.07
2019-02-03T07:57:50.911Z,1010.13
2019-02-03T07:58:50.907Z,1010.14
2019-02-03T07:59:50.908Z,1010.18
2019-02-03T08:00:50.909Z,1010.19
2019-02-03T08:01:50.913Z,1010.25
2019-02-03T08:02:50.911Z,1010.25
2019-02-03T08:03:50.909Z,1010.33
2019-02-03T08:04:50.914Z,1010.35
2019-02-03T08:05:50.913Z,1010.30
2019-02-03T08:06:50.914Z,1010.33
2019-02-03T08:07:50.911Z,1010.34
2019-02-03T08:08:50.913Z,1010.34
2019-02-03T08:09:50.926Z,1010.35
2019-02-03T08:10:50.919Z,1010.44
2019-02-03T08:11:50.910Z,1010.41
2019-02-03T08:12:50.945Z,1010.47
2019-02-03T08:13:50.928Z,1010.52
2019-02-03T08:14:50.931Z,1010.50
2019-02-03T08:15:50.923Z,1010.56
2019-02-03T08:16:50.921Z,1010.56
2019-02-03T08:17:50.928Z,1010.58
2019-02-03T08:18:50.938Z,1010.61
2019-02-03T08:19:51.013Z,1010.61
2019-02-03T08:20:50.924Z,1010.64
2019-02-03T08:21:50.926Z,1010.67
2019-02-03T08:22:50.921Z,1010.72
2019-02-03T08:23:51.347Z,1010.73
2019-02-03T08:24:50.931Z,1010.77
2019-02-03T08:25:54.871Z,1010.74
2019-02-03T08:27:50.940Z,1010.77
2019-02-03T08:28:50.938Z,1010.77
2019-02-03T08:29:50.939Z,1010.80
2019-02-03T08:30:50.961Z,1010.78
2019-02-03T08:31:50.943Z,1010.82
2019-02-03T08:32:50.942Z,1010.76
2019-02-03T08:33:50.948Z,1010.74
2019-02-03T08:34:51.441Z,1010.74
2019-02-03T08:35:51.339Z,1010.73
2019-02-03T08:37:51.204Z,1010.80
2019-02-03T08:38:50.961Z,1010.83
2019-02-03T08:39:51.068Z,1010.88
2019-02-03T08:40:50.964Z,1010.87
2019-02-03T08:41:51.111Z,1010.91
2019-02-03T08:42:51.109Z,1010.93
2019-02-03T08:43:50.969Z,1010.94
2019-02-03T08:44:50.973Z,1010.99
2019-02-03T08:45:50.974Z,1010.91
2019-02-03T08:46:50.966Z,1010.95
2019-02-03T08:47:50.963Z,1010.97
2019-02-03T08:48:50.968Z,1011.00
2019-02-03T08:49:50.968Z,1011.03
2019-02-03T08:50:50.978Z,1011.00
2019-02-03T08:51:51.234Z,1011.05
2019-02-03T08:52:51.417Z,1011.08
2019-02-03T08:53:50.985Z,1011.07
2019-02-03T08:54:58.379Z,1011.09
2019-02-03T08:55:50.986Z,1011.11
2019-02-03T08:56:50.969Z,1011.15
2019-02-03T08:57:51.060Z,1011.14
2019-02-03T08:58:50.974Z,1011.15
2019-02-03T08:59:51.024Z,1011.16
2019-02-03T09:00:50.988Z,1011.18
2019-02-03T09:01:50.998Z,1011.18
2019-02-03T09:02:50.999Z,1011.20
2019-02-03T09:03:51.007Z,1011.21
2019-02-03T09:04:51.000Z,1011.29
2019-02-03T09:05:50.991Z,1011.30
2019-02-03T09:06:50.993Z,1011.30
2019-02-03T09:07:51.012Z,1011.32
2019-02-03T09:08:51.015Z,1011.36
2019-02-03T09:09:50.999Z,1011.39
2019-02-03T09:10:53.773Z,1011.39
2019-02-03T09:11:51.017Z,1011.34
2019-02-03T09:12:51.152Z,1011.38
2019-02-03T09:13:50.994Z,1011.37
2019-02-03T09:14:51.001Z,1011.39
2019-02-03T09:15:52.070Z,1011.41
2019-02-03T09:16:51.016Z,1011.41
2019-02-03T09:17:51.010Z,1011.50
2019-02-03T09:18:51.101Z,1011.46
2019-02-03T09:19:51.025Z,1011.45
2019-02-03T09:25:33.041Z,1011.41
2019-02-03T09:26:33.012Z,1011.51
2019-02-03T09:27:33.010Z,1011.61
2019-02-03T09:28:33.023Z,1011.67
2019-02-03T09:29:33.015Z,1011.88
2019-02-03T09:30:33.023Z,1012.14
2019-02-03T09:31:33.019Z,1012.36
2019-02-03T09:32:33.026Z,1012.60
2019-02-03T09:33:33.039Z,1012.83
2019-02-03T09:34:33.129Z,1013.01
2019-02-03T09:35:33.040Z,1013.14
2019-02-03T09:36:33.043Z,1013.08
2019-02-03T09:37:33.049Z,1013.02
2019-02-03T09:38:33.052Z,1013.05
2019-02-03T09:39:33.054Z,1012.99
2019-02-03T09:40:33.059Z,1012.90
2019-02-03T09:41:33.075Z,1012.88
2019-02-03T09:42:33.071Z,1012.73
2019-02-03T09:43:33.094Z,1012.43
2019-02-03T09:44:33.104Z,1012.71
2019-02-03T09:45:33.120Z,1012.63
2019-02-03T09:46:33.128Z,1012.60
2019-02-03T09:47:33.132Z,1012.51
2019-02-03T09:48:33.139Z,1012.45
2019-02-03T09:49:33.160Z,1012.38
2019-02-03T09:50:33.169Z,1012.47
2019-02-03T09:51:33.177Z,1012.33
2019-02-03T09:52:33.335Z,1012.34
2019-02-03T09:53:33.205Z,1012.33
2019-02-03T09:54:33.212Z,1012.32
2019-02-03T09:55:33.220Z,1012.30
2019-02-03T09:56:33.252Z,1012.25
2019-02-03T09:57:33.250Z,1012.18
2019-02-03T09:59:33.274Z,1012.07
2019-02-03T10:00:33.290Z,1012.13
2019-02-03T10:01:33.299Z,1012.12
2019-02-03T10:02:33.319Z,1011.99
2019-02-03T10:03:33.332Z,1011.91
2019-02-03T10:04:33.346Z,1011.91
2019-02-03T10:05:33.354Z,1011.93
2019-02-03T10:06:33.367Z,1011.93
2019-02-03T10:07:33.382Z,1011.88
2019-02-03T10:08:40.334Z,1011.83
2019-02-03T10:09:33.415Z,1011.84
2019-02-03T10:10:33.438Z,1011.90
2019-02-03T10:11:33.447Z,1011.93
2019-02-03T10:12:33.454Z,1011.89
2019-02-03T10:13:33.476Z,1011.84
2019-02-03T10:14:33.482Z,1011.93
2019-02-03T10:15:33.495Z,1011.91
2019-02-03T10:16:33.507Z,1011.89
2019-02-03T10:17:33.532Z,1011.86
2019-02-03T10:18:33.537Z,1011.98
2019-02-03T10:19:33.552Z,1011.93
2019-02-03T10:20:33.572Z,1011.95
2019-02-03T10:21:33.589Z,1011.98
2019-02-03T10:22:33.610Z,1011.98
2019-02-03T10:23:33.607Z,1011.97
2019-02-03T10:24:41.992Z,1011.98
2019-02-03T10:25:33.652Z,1012.03
2019-02-03T10:26:33.660Z,1012.05
2019-02-03T10:27:33.675Z,1012.09
2019-02-03T10:28:33.696Z,1012.11
2019-02-03T10:29:33.701Z,1012.13
2019-02-03T10:30:33.725Z,1012.14
2019-02-03T10:31:33.739Z,1012.22
2019-02-03T10:32:33.748Z,1012.19
2019-02-03T10:33:33.767Z,1012.27
2019-02-03T10:34:33.785Z,1012.27
2019-02-03T10:35:33.790Z,1012.32
2019-02-03T10:36:33.817Z,1012.39
2019-02-03T10:37:33.838Z,1012.39
2019-02-03T10:38:33.987Z,1012.41
2019-02-03T10:39:33.862Z,1012.40
2019-02-03T10:40:33.865Z,1012.44
2019-02-03T10:41:34.060Z,1012.52
2019-02-03T10:42:33.908Z,1012.60
2019-02-03T10:43:33.914Z,1012.61
2019-02-03T10:44:33.932Z,1012.63
2019-02-03T10:45:33.953Z,1012.68
2019-02-03T10:46:33.965Z,1012.76
2019-02-03T10:47:34.044Z,1012.80
2019-02-03T10:48:33.992Z,1012.93
2019-02-03T10:49:34.005Z,1013.02
2019-02-03T10:50:34.029Z,1013.16
2019-02-03T10:51:34.051Z,1013.35
2019-02-03T10:52:34.057Z,1013.45
2019-02-03T10:53:34.071Z,1013.50
2019-02-03T10:54:34.093Z,1013.54
2019-02-03T10:55:34.108Z,1013.63
2019-02-03T10:56:34.134Z,1013.65
2019-02-03T10:57:34.135Z,1013.56
2019-02-03T10:58:34.147Z,1013.56
2019-02-03T10:59:34.163Z,1013.56
2019-02-03T11:00:34.181Z,1013.54
2019-02-03T11:01:34.191Z,1013.49
2019-02-03T11:02:34.204Z,1013.53
2019-02-03T11:03:34.217Z,1013.45
2019-02-03T11:04:34.235Z,1013.46
2019-02-03T11:05:34.243Z,1013.49
2019-02-03T11:06:34.251Z,1013.48
2019-02-03T11:07:34.268Z,1013.47
2019-02-03T11:08:34.283Z,1013.41
2019-02-03T11:09:34.285Z,1013.44
2019-02-03T11:10:34.294Z,1013.43
2019-02-03T11:11:36.592Z,1013.41
2019-02-03T11:12:34.323Z,1013.34
2019-02-03T11:13:34.327Z,1013.29
2019-02-03T11:14:34.338Z,1013.33
2019-02-03T11:15:34.350Z,1013.28
2019-02-03T11:16:34.352Z,1013.24
2019-02-03T11:17:34.381Z,1013.30
2019-02-03T11:18:34.387Z,1013.26
2019-02-03T11:19:34.399Z,1013.26
2019-02-03T11:20:34.414Z,1013.41
2019-02-03T11:21:34.404Z,1013.63
2019-02-03T11:22:34.422Z,1013.75
2019-02-03T11:23:34.434Z,1013.92
2019-02-03T11:24:34.444Z,1013.79
2019-02-03T11:25:34.456Z,1013.73
2019-02-03T11:26:34.466Z,1013.72
2019-02-03T11:27:34.470Z,1013.73
2019-02-03T11:28:34.478Z,1013.74
2019-02-03T11:29:34.501Z,1013.91
2019-02-03T11:30:34.504Z,1013.87
2019-02-03T11:31:34.524Z,1013.78
2019-02-03T11:32:34.526Z,1013.65
2019-02-03T11:33:34.539Z,1013.61
2019-02-03T11:34:34.547Z,1013.70
2019-02-03T11:35:34.558Z,1013.60
2019-02-03T11:36:34.569Z,1013.67
2019-02-03T11:37:34.577Z,1013.67
2019-02-03T11:38:34.591Z,1013.65
2019-02-03T11:39:34.590Z,1013.58
2019-02-03T11:40:34.608Z,1013.54
2019-02-03T11:41:34.608Z,1013.60
2019-02-03T11:42:34.621Z,1013.63
2019-02-03T11:43:34.651Z,1013.58
2019-02-03T11:44:34.635Z,1013.58
2019-02-03T11:45:34.654Z,1013.55
2019-02-03T11:46:34.790Z,1013.69
2019-02-03T11:47:34.658Z,1013.72
2019-02-03T11:48:34.667Z,1013.71
2019-02-03T11:49:34.676Z,1013.74
2019-02-03T11:50:34.684Z,1013.81
2019-02-03T11:51:34.695Z,1013.84
2019-02-03T11:52:34.707Z,1013.79
2019-02-03T11:53:34.713Z,1013.84
2019-02-03T11:54:34.719Z,1013.83
2019-02-03T11:55:34.728Z,1013.82
2019-02-03T11:56:34.726Z,1013.82
2019-02-03T11:57:34.746Z,1013.80
2019-02-03T11:58:34.753Z,1013.69
2019-02-03T11:59:34.765Z,1013.64
2019-02-03T12:00:34.768Z,1013.62
2019-02-03T12:01:34.769Z,1013.66
2019-02-03T12:02:41.775Z,1013.69
2019-02-03T12:03:34.882Z,1013.70
2019-02-03T12:04:34.795Z,1013.72
2019-02-03T12:05:34.825Z,1013.67
2019-02-03T12:06:34.810Z,1013.67
2019-02-03T12:07:34.816Z,1013.65
2019-02-03T12:08:34.830Z,1013.68
2019-02-03T12:09:34.836Z,1013.65
2019-02-03T12:10:34.832Z,1013.67
2019-02-03T12:11:34.836Z,1013.68
2019-02-03T12:12:34.848Z,1013.73
2019-02-03T12:13:34.850Z,1013.79
2019-02-03T12:14:34.854Z,1013.84
2019-02-03T12:15:34.876Z,1013.86
2019-02-03T12:16:34.881Z,1013.86
2019-02-03T12:17:34.880Z,1013.91
2019-02-03T12:18:34.895Z,1013.83
2019-02-03T12:19:34.914Z,1013.94